sensor_id;sensor_type;location;lat;lon;timestamp;pressure;altitude;pressure_sealevel;temperature;humidity
75089;BME280;63673;49.928;8.150;2023-04-15T00:00:14;982.17;;;4.76;89.31
75089;BME280;63673;49.928;8.150;2023-04-15T00:01:16;982.21;;;4.74;89.39
75089;BME280;63673;49.928;8.150;2023-04-15T00:02:19;982.15;;;4.73;89.51
75089;BME280;63673;49.928;8.150;2023-04-15T00:03:19;982.14;;;4.7;89.65
75089;BME280;63673;49.928;8.150;2023-04-15T00:04:21;982.15;;;4.68;89.89
75089;BME280;63673;49.928;8.150;2023-04-15T00:05:23;982.17;;;4.66;90.17
75089;BME280;63673;49.928;8.150;2023-04-15T00:06:24;982.12;;;4.65;90.28
75089;BME280;63673;49.928;8.150;2023-04-15T00:07:26;982.12;;;4.63;90.49
75089;BME280;63673;49.928;8.150;2023-04-15T00:08:28;982.12;;;4.61;90.76
75089;BME280;63673;49.928;8.150;2023-04-15T00:09:29;982.06;;;4.61;90.86
75089;BME280;63673;49.928;8.150;2023-04-15T00:10:31;982.07;;;4.59;91.05
75089;BME280;63673;49.928;8.150;2023-04-15T00:11:33;982.09;;;4.57;91.55
75089;BME280;63673;49.928;8.150;2023-04-15T00:12:35;982.07;;;4.56;92.04
75089;BME280;63673;49.928;8.150;2023-04-15T00:13:36;982.04;;;4.55;92.05
75089;BME280;63673;49.928;8.150;2023-04-15T00:14:38;982.06;;;4.54;92.25
75089;BME280;63673;49.928;8.150;2023-04-15T00:15:40;982.02;;;4.53;92.9
75089;BME280;63673;49.928;8.150;2023-04-15T00:16:42;982.06;;;4.51;93.21
75089;BME280;63673;49.928;8.150;2023-04-15T00:17:43;982;;;4.52;94.06
75089;BME280;63673;49.928;8.150;2023-04-15T00:18:45;982.03;;;4.51;94.47
75089;BME280;63673;49.928;8.150;2023-04-15T00:19:47;982.03;;;4.51;95.06
75089;BME280;63673;49.928;8.150;2023-04-15T00:20:49;982.06;;;4.5;95.57
75089;BME280;63673;49.928;8.150;2023-04-15T00:21:50;982.01;;;4.49;94.96
75089;BME280;63673;49.928;8.150;2023-04-15T00:22:52;982.04;;;4.48;95.1
75089;BME280;63673;49.928;8.150;2023-04-15T00:23:54;982.01;;;4.47;95.11
75089;BME280;63673;49.928;8.150;2023-04-15T00:24:55;982.01;;;4.46;95.4
75089;BME280;63673;49.928;8.150;2023-04-15T00:25:57;982.03;;;4.45;95.35
75089;BME280;63673;49.928;8.150;2023-04-15T00:26:59;981.98;;;4.44;95.58
75089;BME280;63673;49.928;8.150;2023-04-15T00:28:01;981.98;;;4.43;95.9
75089;BME280;63673;49.928;8.150;2023-04-15T00:29:02;981.97;;;4.42;96
75089;BME280;63673;49.928;8.150;2023-04-15T00:30:05;981.97;;;4.41;96.17
75089;BME280;63673;49.928;8.150;2023-04-15T00:31:06;982.02;;;4.4;96.29
75089;BME280;63673;49.928;8.150;2023-04-15T00:32:08;981.99;;;4.4;96.37
75089;BME280;63673;49.928;8.150;2023-04-15T00:33:09;982.01;;;4.37;96.51
75089;BME280;63673;49.928;8.150;2023-04-15T00:34:11;982;;;4.37;97.29
75089;BME280;63673;49.928;8.150;2023-04-15T00:35:13;981.97;;;4.35;97.26
75089;BME280;63673;49.928;8.150;2023-04-15T00:36:15;982;;;4.32;97.45
75089;BME280;63673;49.928;8.150;2023-04-15T00:37:16;981.98;;;4.29;97.38
75089;BME280;63673;49.928;8.150;2023-04-15T00:38:18;982;;;4.25;97.33
75089;BME280;63673;49.928;8.150;2023-04-15T00:39:21;981.99;;;4.22;97.48
75089;BME280;63673;49.928;8.150;2023-04-15T00:40:22;982.01;;;4.17;97.27
75089;BME280;63673;49.928;8.150;2023-04-15T00:41:23;982;;;4.13;97.54
75089;BME280;63673;49.928;8.150;2023-04-15T00:42:25;982.04;;;4.1;97.9
75089;BME280;63673;49.928;8.150;2023-04-15T00:43:27;982.05;;;4.06;97.77
75089;BME280;63673;49.928;8.150;2023-04-15T00:44:28;982;;;4.04;97.75
75089;BME280;63673;49.928;8.150;2023-04-15T00:45:30;982.03;;;4.01;97.78
75089;BME280;63673;49.928;8.150;2023-04-15T00:46:32;982;;;3.98;99.09
75089;BME280;63673;49.928;8.150;2023-04-15T00:47:34;982.03;;;3.94;100
75089;BME280;63673;49.928;8.150;2023-04-15T00:48:35;981.99;;;3.91;100
75089;BME280;63673;49.928;8.150;2023-04-15T00:49:37;981.98;;;3.9;100
75089;BME280;63673;49.928;8.150;2023-04-15T00:50:39;982.03;;;3.88;100
75089;BME280;63673;49.928;8.150;2023-04-15T00:51:41;982.02;;;3.85;100
75089;BME280;63673;49.928;8.150;2023-04-15T00:52:42;982;;;3.83;100
75089;BME280;63673;49.928;8.150;2023-04-15T00:53:44;981.98;;;3.81;100
75089;BME280;63673;49.928;8.150;2023-04-15T00:54:46;982.03;;;3.8;100
75089;BME280;63673;49.928;8.150;2023-04-15T00:56:08;982.02;;;3.78;100
75089;BME280;63673;49.928;8.150;2023-04-15T00:57:10;982.02;;;3.77;100
75089;BME280;63673;49.928;8.150;2023-04-15T00:58:12;982.01;;;3.75;100
75089;BME280;63673;49.928;8.150;2023-04-15T00:59:13;982.04;;;3.74;100
75089;BME280;63673;49.928;8.150;2023-04-15T01:00:15;981.97;;;3.72;100
75089;BME280;63673;49.928;8.150;2023-04-15T01:01:17;981.94;;;3.72;100
75089;BME280;63673;49.928;8.150;2023-04-15T01:02:19;981.92;;;3.72;100
75089;BME280;63673;49.928;8.150;2023-04-15T01:03:20;981.97;;;3.72;100
75089;BME280;63673;49.928;8.150;2023-04-15T01:04:22;981.97;;;3.72;100
75089;BME280;63673;49.928;8.150;2023-04-15T01:05:24;981.99;;;3.72;100
75089;BME280;63673;49.928;8.150;2023-04-15T01:06:26;981.97;;;3.71;100
75089;BME280;63673;49.928;8.150;2023-04-15T01:07:27;981.99;;;3.71;100
75089;BME280;63673;49.928;8.150;2023-04-15T01:08:29;981.98;;;3.7;100
75089;BME280;63673;49.928;8.150;2023-04-15T01:09:31;981.96;;;3.7;100
75089;BME280;63673;49.928;8.150;2023-04-15T01:10:33;981.95;;;3.7;100
75089;BME280;63673;49.928;8.150;2023-04-15T01:11:34;981.95;;;3.69;100
75089;BME280;63673;49.928;8.150;2023-04-15T01:12:36;981.96;;;3.69;100
75089;BME280;63673;49.928;8.150;2023-04-15T01:13:38;981.95;;;3.67;100
75089;BME280;63673;49.928;8.150;2023-04-15T01:14:39;981.9;;;3.66;100
75089;BME280;63673;49.928;8.150;2023-04-15T01:15:41;981.89;;;3.67;100
75089;BME280;63673;49.928;8.150;2023-04-15T01:16:43;981.87;;;3.66;100
75089;BME280;63673;49.928;8.150;2023-04-15T01:17:45;981.87;;;3.66;100
75089;BME280;63673;49.928;8.150;2023-04-15T01:18:46;981.92;;;3.65;100
75089;BME280;63673;49.928;8.150;2023-04-15T01:19:48;981.88;;;3.65;100
75089;BME280;63673;49.928;8.150;2023-04-15T01:20:50;981.87;;;3.66;100
75089;BME280;63673;49.928;8.150;2023-04-15T01:21:52;981.91;;;3.67;100
75089;BME280;63673;49.928;8.150;2023-04-15T01:22:54;981.89;;;3.68;100
75089;BME280;63673;49.928;8.150;2023-04-15T01:23:55;981.9;;;3.7;100
75089;BME280;63673;49.928;8.150;2023-04-15T01:24:58;981.88;;;3.73;100
75089;BME280;63673;49.928;8.150;2023-04-15T01:25:59;981.88;;;3.75;100
75089;BME280;63673;49.928;8.150;2023-04-15T01:27:00;981.85;;;3.77;100
75089;BME280;63673;49.928;8.150;2023-04-15T01:28:02;981.87;;;3.8;100
75089;BME280;63673;49.928;8.150;2023-04-15T01:29:04;981.87;;;3.81;100
75089;BME280;63673;49.928;8.150;2023-04-15T01:30:06;981.81;;;3.83;100
75089;BME280;63673;49.928;8.150;2023-04-15T01:31:08;981.83;;;3.86;100
75089;BME280;63673;49.928;8.150;2023-04-15T01:32:09;981.87;;;3.88;100
75089;BME280;63673;49.928;8.150;2023-04-15T01:33:11;981.85;;;3.9;100
75089;BME280;63673;49.928;8.150;2023-04-15T01:34:12;981.87;;;3.92;100
75089;BME280;63673;49.928;8.150;2023-04-15T01:35:14;981.84;;;3.92;100
75089;BME280;63673;49.928;8.150;2023-04-15T01:36:16;981.85;;;3.94;100
75089;BME280;63673;49.928;8.150;2023-04-15T01:37:18;981.84;;;3.93;100
75089;BME280;63673;49.928;8.150;2023-04-15T01:38:19;981.82;;;3.95;100
75089;BME280;63673;49.928;8.150;2023-04-15T01:39:21;981.86;;;3.94;100
75089;BME280;63673;49.928;8.150;2023-04-15T01:40:23;981.9;;;3.95;100
75089;BME280;63673;49.928;8.150;2023-04-15T01:41:25;981.9;;;3.95;100
75089;BME280;63673;49.928;8.150;2023-04-15T01:42:26;981.89;;;3.96;100
75089;BME280;63673;49.928;8.150;2023-04-15T01:43:28;981.89;;;3.96;100
75089;BME280;63673;49.928;8.150;2023-04-15T01:44:30;981.92;;;3.97;100
75089;BME280;63673;49.928;8.150;2023-04-15T01:45:31;981.89;;;3.97;100
75089;BME280;63673;49.928;8.150;2023-04-15T01:46:34;981.91;;;3.98;100
75089;BME280;63673;49.928;8.150;2023-04-15T01:47:35;981.87;;;3.99;100
75089;BME280;63673;49.928;8.150;2023-04-15T01:48:37;981.96;;;4.01;100
75089;BME280;63673;49.928;8.150;2023-04-15T01:49:38;981.9;;;4.01;100
75089;BME280;63673;49.928;8.150;2023-04-15T01:50:40;981.92;;;4.01;100
75089;BME280;63673;49.928;8.150;2023-04-15T01:51:42;981.94;;;4.01;100
75089;BME280;63673;49.928;8.150;2023-04-15T01:52:44;981.97;;;4;100
75089;BME280;63673;49.928;8.150;2023-04-15T01:53:45;981.93;;;4;100
75089;BME280;63673;49.928;8.150;2023-04-15T01:54:47;981.99;;;4;100
75089;BME280;63673;49.928;8.150;2023-04-15T01:55:49;981.97;;;4;100
75089;BME280;63673;49.928;8.150;2023-04-15T01:56:51;982.04;;;3.99;100
75089;BME280;63673;49.928;8.150;2023-04-15T01:57:52;982.02;;;3.97;100
75089;BME280;63673;49.928;8.150;2023-04-15T01:58:54;981.97;;;3.96;100
75089;BME280;63673;49.928;8.150;2023-04-15T01:59:56;982;;;3.95;100
75089;BME280;63673;49.928;8.150;2023-04-15T02:00:57;981.96;;;3.93;100
75089;BME280;63673;49.928;8.150;2023-04-15T02:01:59;981.96;;;3.9;100
75089;BME280;63673;49.928;8.150;2023-04-15T02:03:01;981.97;;;3.88;100
75089;BME280;63673;49.928;8.150;2023-04-15T02:04:03;981.96;;;3.85;100
75089;BME280;63673;49.928;8.150;2023-04-15T02:05:05;981.99;;;3.83;100
75089;BME280;63673;49.928;8.150;2023-04-15T02:06:06;981.98;;;3.81;100
75089;BME280;63673;49.928;8.150;2023-04-15T02:07:08;981.97;;;3.78;100
75089;BME280;63673;49.928;8.150;2023-04-15T02:08:10;982.03;;;3.75;100
75089;BME280;63673;49.928;8.150;2023-04-15T02:09:11;981.97;;;3.72;100
75089;BME280;63673;49.928;8.150;2023-04-15T02:10:13;981.98;;;3.7;100
75089;BME280;63673;49.928;8.150;2023-04-15T02:11:15;982;;;3.68;100
75089;BME280;63673;49.928;8.150;2023-04-15T02:12:17;981.97;;;3.65;100
75089;BME280;63673;49.928;8.150;2023-04-15T02:13:18;981.96;;;3.64;100
75089;BME280;63673;49.928;8.150;2023-04-15T02:14:20;981.97;;;3.61;100
75089;BME280;63673;49.928;8.150;2023-04-15T02:15:22;981.98;;;3.58;100
75089;BME280;63673;49.928;8.150;2023-04-15T02:16:23;981.96;;;3.56;100
75089;BME280;63673;49.928;8.150;2023-04-15T02:17:25;981.99;;;3.53;100
75089;BME280;63673;49.928;8.150;2023-04-15T02:18:27;981.96;;;3.5;100
75089;BME280;63673;49.928;8.150;2023-04-15T02:19:29;981.92;;;3.47;100
75089;BME280;63673;49.928;8.150;2023-04-15T02:20:30;981.99;;;3.44;100
75089;BME280;63673;49.928;8.150;2023-04-15T02:21:32;982.03;;;3.42;100
75089;BME280;63673;49.928;8.150;2023-04-15T02:22:34;981.98;;;3.39;100
75089;BME280;63673;49.928;8.150;2023-04-15T02:23:36;982;;;3.37;100
75089;BME280;63673;49.928;8.150;2023-04-15T02:24:37;981.97;;;3.34;100
75089;BME280;63673;49.928;8.150;2023-04-15T02:25:39;982;;;3.31;100
75089;BME280;63673;49.928;8.150;2023-04-15T02:26:41;981.96;;;3.28;100
75089;BME280;63673;49.928;8.150;2023-04-15T02:27:43;981.97;;;3.27;100
75089;BME280;63673;49.928;8.150;2023-04-15T02:28:45;981.97;;;3.25;100
75089;BME280;63673;49.928;8.150;2023-04-15T02:29:46;982.01;;;3.23;100
75089;BME280;63673;49.928;8.150;2023-04-15T02:30:48;982;;;3.21;100
75089;BME280;63673;49.928;8.150;2023-04-15T02:31:49;981.93;;;3.19;100
75089;BME280;63673;49.928;8.150;2023-04-15T02:32:51;982.02;;;3.17;100
75089;BME280;63673;49.928;8.150;2023-04-15T02:33:53;981.91;;;3.15;100
75089;BME280;63673;49.928;8.150;2023-04-15T02:34:55;981.94;;;3.13;100
75089;BME280;63673;49.928;8.150;2023-04-15T02:35:56;982.01;;;3.11;100
75089;BME280;63673;49.928;8.150;2023-04-15T02:36:58;981.95;;;3.1;100
75089;BME280;63673;49.928;8.150;2023-04-15T02:38:00;981.95;;;3.09;100
75089;BME280;63673;49.928;8.150;2023-04-15T02:39:02;981.95;;;3.07;100
75089;BME280;63673;49.928;8.150;2023-04-15T02:40:04;982.01;;;3.05;100
75089;BME280;63673;49.928;8.150;2023-04-15T02:41:05;982;;;3.05;100
75089;BME280;63673;49.928;8.150;2023-04-15T02:42:07;982;;;3.03;100
75089;BME280;63673;49.928;8.150;2023-04-15T02:43:09;981.99;;;3.01;100
75089;BME280;63673;49.928;8.150;2023-04-15T02:44:10;981.98;;;3;100
75089;BME280;63673;49.928;8.150;2023-04-15T02:45:12;982.01;;;2.97;100
75089;BME280;63673;49.928;8.150;2023-04-15T02:46:14;981.96;;;2.95;100
75089;BME280;63673;49.928;8.150;2023-04-15T02:47:15;981.96;;;2.92;100
75089;BME280;63673;49.928;8.150;2023-04-15T02:48:17;982.01;;;2.91;100
75089;BME280;63673;49.928;8.150;2023-04-15T02:49:19;982.03;;;2.88;100
75089;BME280;63673;49.928;8.150;2023-04-15T02:50:21;981.99;;;2.86;100
75089;BME280;63673;49.928;8.150;2023-04-15T02:51:23;982.05;;;2.84;100
75089;BME280;63673;49.928;8.150;2023-04-15T02:52:24;982.05;;;2.82;100
75089;BME280;63673;49.928;8.150;2023-04-15T02:53:26;982.01;;;2.8;100
75089;BME280;63673;49.928;8.150;2023-04-15T02:54:28;982.01;;;2.79;100
75089;BME280;63673;49.928;8.150;2023-04-15T02:55:29;982.06;;;2.79;100
75089;BME280;63673;49.928;8.150;2023-04-15T02:56:31;982.07;;;2.77;100
75089;BME280;63673;49.928;8.150;2023-04-15T02:57:33;982.07;;;2.76;100
75089;BME280;63673;49.928;8.150;2023-04-15T02:58:35;982.02;;;2.75;100
75089;BME280;63673;49.928;8.150;2023-04-15T02:59:36;982.08;;;2.74;100
75089;BME280;63673;49.928;8.150;2023-04-15T03:00:38;982.07;;;2.74;100
75089;BME280;63673;49.928;8.150;2023-04-15T03:01:40;982.07;;;2.73;100
75089;BME280;63673;49.928;8.150;2023-04-15T03:02:43;982.06;;;2.73;100
75089;BME280;63673;49.928;8.150;2023-04-15T03:03:43;982.07;;;2.72;100
75089;BME280;63673;49.928;8.150;2023-04-15T03:04:45;982.07;;;2.71;100
75089;BME280;63673;49.928;8.150;2023-04-15T03:05:47;982.06;;;2.71;100
75089;BME280;63673;49.928;8.150;2023-04-15T03:06:48;982.12;;;2.7;100
75089;BME280;63673;49.928;8.150;2023-04-15T03:07:50;982.12;;;2.69;100
75089;BME280;63673;49.928;8.150;2023-04-15T03:08:52;982.13;;;2.69;100
75089;BME280;63673;49.928;8.150;2023-04-15T03:09:54;982.14;;;2.69;100
75089;BME280;63673;49.928;8.150;2023-04-15T03:10:56;982.15;;;2.68;100
75089;BME280;63673;49.928;8.150;2023-04-15T03:11:57;982.12;;;2.67;100
75089;BME280;63673;49.928;8.150;2023-04-15T03:12:59;982.12;;;2.67;100
75089;BME280;63673;49.928;8.150;2023-04-15T03:14:01;982.16;;;2.68;100
75089;BME280;63673;49.928;8.150;2023-04-15T03:15:02;982.12;;;2.67;100
75089;BME280;63673;49.928;8.150;2023-04-15T03:16:04;982.09;;;2.67;100
75089;BME280;63673;49.928;8.150;2023-04-15T03:17:06;982.11;;;2.66;100
75089;BME280;63673;49.928;8.150;2023-04-15T03:18:07;982.11;;;2.65;100
75089;BME280;63673;49.928;8.150;2023-04-15T03:19:09;982.12;;;2.64;100
75089;BME280;63673;49.928;8.150;2023-04-15T03:20:11;982.09;;;2.64;100
75089;BME280;63673;49.928;8.150;2023-04-15T03:21:13;982.12;;;2.63;100
75089;BME280;63673;49.928;8.150;2023-04-15T03:22:14;982.15;;;2.62;100
75089;BME280;63673;49.928;8.150;2023-04-15T03:23:16;982.12;;;2.61;100
75089;BME280;63673;49.928;8.150;2023-04-15T03:24:19;982.08;;;2.61;100
75089;BME280;63673;49.928;8.150;2023-04-15T03:25:20;982.11;;;2.6;100
75089;BME280;63673;49.928;8.150;2023-04-15T03:26:23;982.12;;;2.61;100
75089;BME280;63673;49.928;8.150;2023-04-15T03:27:23;982.09;;;2.61;100
75089;BME280;63673;49.928;8.150;2023-04-15T03:28:25;982.1;;;2.62;100
75089;BME280;63673;49.928;8.150;2023-04-15T03:29:27;982.1;;;2.61;100
75089;BME280;63673;49.928;8.150;2023-04-15T03:30:28;982.12;;;2.62;100
75089;BME280;63673;49.928;8.150;2023-04-15T03:31:30;982.1;;;2.6;100
75089;BME280;63673;49.928;8.150;2023-04-15T03:32:32;982.07;;;2.59;100
75089;BME280;63673;49.928;8.150;2023-04-15T03:33:34;982.09;;;2.59;100
75089;BME280;63673;49.928;8.150;2023-04-15T03:34:35;982.11;;;2.59;100
75089;BME280;63673;49.928;8.150;2023-04-15T03:35:37;982.12;;;2.58;100
75089;BME280;63673;49.928;8.150;2023-04-15T03:36:39;982.16;;;2.56;100
75089;BME280;63673;49.928;8.150;2023-04-15T03:37:40;982.13;;;2.56;100
75089;BME280;63673;49.928;8.150;2023-04-15T03:38:42;982.14;;;2.54;100
75089;BME280;63673;49.928;8.150;2023-04-15T03:39:44;982.12;;;2.53;100
75089;BME280;63673;49.928;8.150;2023-04-15T03:40:46;982.12;;;2.52;100
75089;BME280;63673;49.928;8.150;2023-04-15T03:41:47;982.11;;;2.5;100
75089;BME280;63673;49.928;8.150;2023-04-15T03:42:49;982.12;;;2.5;100
75089;BME280;63673;49.928;8.150;2023-04-15T03:43:51;982.11;;;2.49;100
75089;BME280;63673;49.928;8.150;2023-04-15T03:44:53;982.12;;;2.48;100
75089;BME280;63673;49.928;8.150;2023-04-15T03:45:54;982.05;;;2.48;100
75089;BME280;63673;49.928;8.150;2023-04-15T03:46:56;982.09;;;2.49;100
75089;BME280;63673;49.928;8.150;2023-04-15T03:47:58;982.1;;;2.5;100
75089;BME280;63673;49.928;8.150;2023-04-15T03:49:00;982.07;;;2.52;100
75089;BME280;63673;49.928;8.150;2023-04-15T03:50:01;982.09;;;2.52;100
75089;BME280;63673;49.928;8.150;2023-04-15T03:51:03;982.04;;;2.53;100
75089;BME280;63673;49.928;8.150;2023-04-15T03:52:05;982.05;;;2.54;100
75089;BME280;63673;49.928;8.150;2023-04-15T03:53:07;982.07;;;2.55;100
75089;BME280;63673;49.928;8.150;2023-04-15T03:54:08;982.05;;;2.57;100
75089;BME280;63673;49.928;8.150;2023-04-15T03:55:10;982.1;;;2.58;100
75089;BME280;63673;49.928;8.150;2023-04-15T03:56:12;982.08;;;2.59;100
75089;BME280;63673;49.928;8.150;2023-04-15T03:57:13;982.03;;;2.6;100
75089;BME280;63673;49.928;8.150;2023-04-15T03:58:15;982.05;;;2.62;100
75089;BME280;63673;49.928;8.150;2023-04-15T03:59:17;982.07;;;2.62;100
75089;BME280;63673;49.928;8.150;2023-04-15T04:00:19;982.08;;;2.64;100
75089;BME280;63673;49.928;8.150;2023-04-15T04:01:21;982.08;;;2.65;100
75089;BME280;63673;49.928;8.150;2023-04-15T04:02:22;982.06;;;2.65;100
75089;BME280;63673;49.928;8.150;2023-04-15T04:03:24;982.07;;;2.65;100
75089;BME280;63673;49.928;8.150;2023-04-15T04:04:26;982.02;;;2.68;100
75089;BME280;63673;49.928;8.150;2023-04-15T04:05:27;982.09;;;2.68;100
75089;BME280;63673;49.928;8.150;2023-04-15T04:06:29;982.07;;;2.69;100
75089;BME280;63673;49.928;8.150;2023-04-15T04:07:31;982.13;;;2.68;100
75089;BME280;63673;49.928;8.150;2023-04-15T04:08:32;982.12;;;2.69;100
75089;BME280;63673;49.928;8.150;2023-04-15T04:09:34;982.07;;;2.7;100
75089;BME280;63673;49.928;8.150;2023-04-15T04:10:36;982.1;;;2.68;100
75089;BME280;63673;49.928;8.150;2023-04-15T04:11:38;982.08;;;2.69;100
75089;BME280;63673;49.928;8.150;2023-04-15T04:12:39;982.1;;;2.68;100
75089;BME280;63673;49.928;8.150;2023-04-15T04:13:41;982.11;;;2.66;100
75089;BME280;63673;49.928;8.150;2023-04-15T04:14:43;982.1;;;2.65;100
75089;BME280;63673;49.928;8.150;2023-04-15T04:15:45;982.09;;;2.64;100
75089;BME280;63673;49.928;8.150;2023-04-15T04:16:46;982.11;;;2.61;100
75089;BME280;63673;49.928;8.150;2023-04-15T04:17:48;982.07;;;2.59;100
75089;BME280;63673;49.928;8.150;2023-04-15T04:18:50;982.13;;;2.57;100
75089;BME280;63673;49.928;8.150;2023-04-15T04:19:52;982.14;;;2.53;100
75089;BME280;63673;49.928;8.150;2023-04-15T04:20:53;982.16;;;2.49;100
75089;BME280;63673;49.928;8.150;2023-04-15T04:21:55;982.13;;;2.45;100
75089;BME280;63673;49.928;8.150;2023-04-15T04:22:57;982.07;;;2.4;100
75089;BME280;63673;49.928;8.150;2023-04-15T04:23:59;982.18;;;2.33;100
75089;BME280;63673;49.928;8.150;2023-04-15T04:25:00;982.14;;;2.26;100
75089;BME280;63673;49.928;8.150;2023-04-15T04:26:02;982.14;;;2.2;100
75089;BME280;63673;49.928;8.150;2023-04-15T04:27:04;982.16;;;2.15;100
75089;BME280;63673;49.928;8.150;2023-04-15T04:28:05;982.17;;;2.09;100
75089;BME280;63673;49.928;8.150;2023-04-15T04:29:07;982.16;;;2.05;100
75089;BME280;63673;49.928;8.150;2023-04-15T04:30:09;982.19;;;2;100
75089;BME280;63673;49.928;8.150;2023-04-15T04:31:11;982.17;;;1.95;100
75089;BME280;63673;49.928;8.150;2023-04-15T04:32:12;982.16;;;1.92;100
75089;BME280;63673;49.928;8.150;2023-04-15T04:33:14;982.15;;;1.9;100
75089;BME280;63673;49.928;8.150;2023-04-15T04:34:16;982.14;;;1.87;100
75089;BME280;63673;49.928;8.150;2023-04-15T04:35:18;982.16;;;1.86;100
75089;BME280;63673;49.928;8.150;2023-04-15T04:36:19;982.16;;;1.85;100
75089;BME280;63673;49.928;8.150;2023-04-15T04:37:21;982.16;;;1.84;100
75089;BME280;63673;49.928;8.150;2023-04-15T04:38:23;982.19;;;1.83;100
75089;BME280;63673;49.928;8.150;2023-04-15T04:39:24;982.09;;;1.83;100
75089;BME280;63673;49.928;8.150;2023-04-15T04:40:26;982.14;;;1.82;100
75089;BME280;63673;49.928;8.150;2023-04-15T04:41:28;982.16;;;1.81;100
75089;BME280;63673;49.928;8.150;2023-04-15T04:42:30;982.15;;;1.81;100
75089;BME280;63673;49.928;8.150;2023-04-15T04:43:31;982.22;;;1.8;100
75089;BME280;63673;49.928;8.150;2023-04-15T04:44:33;982.17;;;1.8;100
75089;BME280;63673;49.928;8.150;2023-04-15T04:45:35;982.2;;;1.81;100
75089;BME280;63673;49.928;8.150;2023-04-15T04:46:37;982.21;;;1.81;100
75089;BME280;63673;49.928;8.150;2023-04-15T04:47:38;982.22;;;1.83;100
75089;BME280;63673;49.928;8.150;2023-04-15T04:48:40;982.22;;;1.82;100
75089;BME280;63673;49.928;8.150;2023-04-15T04:49:42;982.23;;;1.83;100
75089;BME280;63673;49.928;8.150;2023-04-15T04:50:44;982.2;;;1.83;100
75089;BME280;63673;49.928;8.150;2023-04-15T04:51:45;982.24;;;1.82;100
75089;BME280;63673;49.928;8.150;2023-04-15T04:52:47;982.21;;;1.82;100
75089;BME280;63673;49.928;8.150;2023-04-15T04:53:49;982.22;;;1.82;100
75089;BME280;63673;49.928;8.150;2023-04-15T04:54:50;982.19;;;1.81;100
75089;BME280;63673;49.928;8.150;2023-04-15T04:55:52;982.15;;;1.81;100
75089;BME280;63673;49.928;8.150;2023-04-15T04:56:54;982.2;;;1.81;100
75089;BME280;63673;49.928;8.150;2023-04-15T04:57:56;982.15;;;1.83;100
75089;BME280;63673;49.928;8.150;2023-04-15T04:58:57;982.18;;;1.86;100
75089;BME280;63673;49.928;8.150;2023-04-15T04:59:59;982.16;;;1.87;100
75089;BME280;63673;49.928;8.150;2023-04-15T05:01:01;982.15;;;1.89;100
75089;BME280;63673;49.928;8.150;2023-04-15T05:02:03;982.17;;;1.91;100
75089;BME280;63673;49.928;8.150;2023-04-15T05:03:04;982.17;;;1.92;100
75089;BME280;63673;49.928;8.150;2023-04-15T05:04:06;982.19;;;1.94;100
75089;BME280;63673;49.928;8.150;2023-04-15T05:05:08;982.23;;;1.94;100
75089;BME280;63673;49.928;8.150;2023-04-15T05:06:10;982.22;;;1.96;100
75089;BME280;63673;49.928;8.150;2023-04-15T05:07:11;982.21;;;1.97;100
75089;BME280;63673;49.928;8.150;2023-04-15T05:08:13;982.23;;;1.97;100
75089;BME280;63673;49.928;8.150;2023-04-15T05:09:15;982.23;;;1.98;100
75089;BME280;63673;49.928;8.150;2023-04-15T05:10:16;982.3;;;1.98;100
75089;BME280;63673;49.928;8.150;2023-04-15T05:11:18;982.24;;;1.98;100
75089;BME280;63673;49.928;8.150;2023-04-15T05:12:20;982.27;;;1.96;100
75089;BME280;63673;49.928;8.150;2023-04-15T05:13:22;982.28;;;1.97;100
75089;BME280;63673;49.928;8.150;2023-04-15T05:14:23;982.29;;;1.96;100
75089;BME280;63673;49.928;8.150;2023-04-15T05:15:25;982.26;;;1.96;100
75089;BME280;63673;49.928;8.150;2023-04-15T05:16:28;982.31;;;1.95;100
75089;BME280;63673;49.928;8.150;2023-04-15T05:17:29;982.31;;;1.95;100
75089;BME280;63673;49.928;8.150;2023-04-15T05:18:30;982.32;;;1.94;100
75089;BME280;63673;49.928;8.150;2023-04-15T05:19:32;982.35;;;1.92;100
75089;BME280;63673;49.928;8.150;2023-04-15T05:20:34;982.35;;;1.91;100
75089;BME280;63673;49.928;8.150;2023-04-15T05:21:36;982.36;;;1.9;100
75089;BME280;63673;49.928;8.150;2023-04-15T05:22:37;982.36;;;1.9;100
75089;BME280;63673;49.928;8.150;2023-04-15T05:23:39;982.35;;;1.88;100
75089;BME280;63673;49.928;8.150;2023-04-15T05:24:41;982.36;;;1.88;100
75089;BME280;63673;49.928;8.150;2023-04-15T05:25:42;982.39;;;1.87;100
75089;BME280;63673;49.928;8.150;2023-04-15T05:26:44;982.33;;;1.87;100
75089;BME280;63673;49.928;8.150;2023-04-15T05:27:46;982.41;;;1.86;100
75089;BME280;63673;49.928;8.150;2023-04-15T05:28:48;982.45;;;1.86;100
75089;BME280;63673;49.928;8.150;2023-04-15T05:29:49;982.41;;;1.85;100
75089;BME280;63673;49.928;8.150;2023-04-15T05:30:51;982.43;;;1.84;100
75089;BME280;63673;49.928;8.150;2023-04-15T05:31:53;982.44;;;1.85;100
75089;BME280;63673;49.928;8.150;2023-04-15T05:32:55;982.45;;;1.85;100
75089;BME280;63673;49.928;8.150;2023-04-15T05:33:56;982.41;;;1.86;100
75089;BME280;63673;49.928;8.150;2023-04-15T05:34:58;982.45;;;1.86;100
75089;BME280;63673;49.928;8.150;2023-04-15T05:36:00;982.48;;;1.86;100
75089;BME280;63673;49.928;8.150;2023-04-15T05:37:02;982.49;;;1.88;100
75089;BME280;63673;49.928;8.150;2023-04-15T05:38:03;982.48;;;1.91;100
75089;BME280;63673;49.928;8.150;2023-04-15T05:39:05;982.56;;;1.96;100
75089;BME280;63673;49.928;8.150;2023-04-15T05:40:07;982.48;;;1.98;100
75089;BME280;63673;49.928;8.150;2023-04-15T05:41:08;982.52;;;2.01;100
75089;BME280;63673;49.928;8.150;2023-04-15T05:42:10;982.52;;;2.05;100
75089;BME280;63673;49.928;8.150;2023-04-15T05:43:12;982.5;;;2.07;100
75089;BME280;63673;49.928;8.150;2023-04-15T05:44:14;982.56;;;2.1;100
75089;BME280;63673;49.928;8.150;2023-04-15T05:45:15;982.48;;;2.12;100
75089;BME280;63673;49.928;8.150;2023-04-15T05:46:17;982.51;;;2.13;100
75089;BME280;63673;49.928;8.150;2023-04-15T05:47:19;982.51;;;2.16;100
75089;BME280;63673;49.928;8.150;2023-04-15T05:48:21;982.51;;;2.17;100
75089;BME280;63673;49.928;8.150;2023-04-15T05:49:22;982.48;;;2.18;100
75089;BME280;63673;49.928;8.150;2023-04-15T05:50:24;982.41;;;2.2;100